createdAt,value
2022-12-01T00:00:02.212Z,2.38
2022-12-01T00:00:15.704Z,2.39
2022-12-01T00:00:43.898Z,2.38
2022-12-01T00:01:07.027Z,2.38
2022-12-01T00:01:19.936Z,2.38
2022-12-01T00:01:32.498Z,2.39
2022-12-01T00:01:45.257Z,2.40
2022-12-01T00:01:58.028Z,2.40
2022-12-01T00:02:12.125Z,2.40
2022-12-01T00:02:25.965Z,2.39
2022-12-01T00:02:38.843Z,2.39
2022-12-01T00:02:51.892Z,2.38
2022-12-01T00:03:05.281Z,2.37
2022-12-01T00:03:18.102Z,2.39
2022-12-01T00:03:31.587Z,2.38
2022-12-01T00:03:44.344Z,2.37
2022-12-01T00:03:57.934Z,2.36
2022-12-01T00:04:10.571Z,2.37
2022-12-01T00:04:23.092Z,2.37
2022-12-01T00:04:35.740Z,2.38
2022-12-01T00:04:48.377Z,2.38
2022-12-01T00:05:01.228Z,2.39
2022-12-01T00:05:14.045Z,2.38
2022-12-01T00:05:26.593Z,2.39
2022-12-01T00:05:40.272Z,2.39
2022-12-01T00:05:58.716Z,2.38
2022-12-01T00:06:12.712Z,2.38
2022-12-01T00:06:25.281Z,2.39
2022-12-01T00:06:37.892Z,2.39
2022-12-01T00:06:50.430Z,2.40
2022-12-01T00:07:04.124Z,2.39
2022-12-01T00:07:16.845Z,2.40
2022-12-01T00:07:29.405Z,2.40
2022-12-01T00:07:41.984Z,2.39
2022-12-01T00:07:54.688Z,2.40
2022-12-01T00:08:07.351Z,2.40
2022-12-01T00:08:19.984Z,2.40
2022-12-01T00:08:33.779Z,2.40
2022-12-01T00:09:08.271Z,2.41
2022-12-01T00:09:39.000Z,2.41
2022-12-01T00:10:10.394Z,2.40
2022-12-01T00:10:27.015Z,2.40
2022-12-01T00:10:39.798Z,2.39
2022-12-01T00:10:52.952Z,2.38
2022-12-01T00:11:06.418Z,2.37
2022-12-01T00:11:19.103Z,2.36
2022-12-01T00:11:32.543Z,2.36
2022-12-01T00:11:45.111Z,2.37
2022-12-01T00:11:57.715Z,2.37
2022-12-01T00:12:10.276Z,2.36
2022-12-01T00:12:22.829Z,2.36
2022-12-01T00:12:36.432Z,2.36
2022-12-01T00:12:49.002Z,2.36
2022-12-01T00:13:03.448Z,2.36
2022-12-01T00:13:16.336Z,2.36
2022-12-01T00:13:28.917Z,2.36
2022-12-01T00:13:41.495Z,2.34
2022-12-01T00:13:54.123Z,2.36
2022-12-01T00:14:07.951Z,2.34
2022-12-01T00:14:20.778Z,2.35
2022-12-01T00:14:33.340Z,2.35
2022-12-01T00:14:54.783Z,2.36
2022-12-01T00:15:07.584Z,2.34
2022-12-01T00:15:20.604Z,2.35
2022-12-01T00:15:36.249Z,2.34
2022-12-01T00:15:48.880Z,2.33
2022-12-01T00:16:10.129Z,2.34
2022-12-01T00:16:22.741Z,2.34
2022-12-01T00:16:36.501Z,2.34
2022-12-01T00:16:49.169Z,2.34
2022-12-01T00:17:04.966Z,2.33
2022-12-01T00:17:18.889Z,2.35
2022-12-01T00:17:31.446Z,2.34
2022-12-01T00:17:45.761Z,2.36
2022-12-01T00:17:59.555Z,2.34
2022-12-01T00:18:12.105Z,2.37
2022-12-01T00:18:24.660Z,2.34
2022-12-01T00:18:37.267Z,2.36
2022-12-01T00:18:51.592Z,2.37
2022-12-01T00:19:04.272Z,2.36
2022-12-01T00:19:17.831Z,2.36
2022-12-01T00:19:30.429Z,2.34
2022-12-01T00:19:43.032Z,2.34
2022-12-01T00:19:55.871Z,2.32
2022-12-01T00:20:10.345Z,2.32
2022-12-01T00:20:22.996Z,2.33
2022-12-01T00:20:36.291Z,2.32
2022-12-01T00:20:51.288Z,2.32
2022-12-01T00:21:04.103Z,2.32
2022-12-01T00:21:18.714Z,2.31
2022-12-01T00:21:32.297Z,2.31
2022-12-01T00:21:45.826Z,2.32
2022-12-01T00:21:58.814Z,2.31
2022-12-01T00:22:11.391Z,2.31
2022-12-01T00:22:23.980Z,2.30
2022-12-01T00:22:36.635Z,2.31
2022-12-01T00:22:49.684Z,2.29
2022-12-01T00:23:03.525Z,2.30
2022-12-01T00:23:16.380Z,2.29
2022-12-01T00:23:29.063Z,2.28
2022-12-01T00:23:43.429Z,2.30
2022-12-01T00:23:58.336Z,2.28
2022-12-01T00:24:11.804Z,2.28
2022-12-01T00:24:25.354Z,2.28
2022-12-01T00:24:39.001Z,2.28
2022-12-01T00:24:51.620Z,2.28
2022-12-01T00:25:04.886Z,2.28
2022-12-01T00:25:19.433Z,2.28
2022-12-01T00:25:32.500Z,2.29
2022-12-01T00:25:45.216Z,2.29
2022-12-01T00:26:03.929Z,2.29
2022-12-01T00:26:17.835Z,2.30
2022-12-01T00:26:30.396Z,2.29
2022-12-01T00:26:43.054Z,2.28
2022-12-01T00:26:55.665Z,2.30
2022-12-01T00:27:08.309Z,2.30
2022-12-01T00:27:20.976Z,2.30
2022-12-01T00:27:34.828Z,2.31
2022-12-01T00:27:48.635Z,2.31
2022-12-01T00:28:01.199Z,2.31
2022-12-01T00:28:13.857Z,2.33
2022-12-01T00:28:26.412Z,2.32
2022-12-01T00:28:39.251Z,2.32
2022-12-01T00:28:53.151Z,2.32
2022-12-01T00:29:06.814Z,2.33
2022-12-01T00:29:19.394Z,2.32
2022-12-01T00:29:31.965Z,2.31
2022-12-01T00:29:45.862Z,2.32
2022-12-01T00:29:58.752Z,2.32
2022-12-01T00:30:12.704Z,2.32
2022-12-01T00:30:25.405Z,2.33
2022-12-01T00:30:38.979Z,2.33
2022-12-01T00:30:51.635Z,2.34
2022-12-01T00:31:07.582Z,2.34
2022-12-01T00:31:20.790Z,2.34
2022-12-01T00:31:33.705Z,2.33
2022-12-01T00:31:46.313Z,2.34
2022-12-01T00:31:59.237Z,2.33
2022-12-01T00:32:11.913Z,2.33
2022-12-01T00:32:25.967Z,2.33
2022-12-01T00:32:39.551Z,2.33
2022-12-01T00:32:52.100Z,2.34
2022-12-01T00:33:04.664Z,2.33
2022-12-01T00:33:17.241Z,2.34
2022-12-01T00:33:29.812Z,2.36
2022-12-01T00:33:42.366Z,2.36
2022-12-01T00:33:55.172Z,2.36
2022-12-01T00:34:13.964Z,2.36
2022-12-01T00:34:28.129Z,2.35
2022-12-01T00:34:40.816Z,2.36
2022-12-01T00:34:53.387Z,2.36
2022-12-01T00:35:07.003Z,2.36
2022-12-01T00:35:19.851Z,2.37
2022-12-01T00:35:32.416Z,2.38
2022-12-01T00:35:46.008Z,2.37
2022-12-01T00:35:59.475Z,2.37
2022-12-01T00:36:12.346Z,2.38
2022-12-01T00:36:24.986Z,2.38
2022-12-01T00:36:37.824Z,2.38
2022-12-01T00:36:50.399Z,2.39
2022-12-01T00:37:03.031Z,2.39
2022-12-01T00:37:16.597Z,2.39
2022-12-01T00:37:30.361Z,2.39
2022-12-01T00:37:43.661Z,2.39
2022-12-01T00:37:56.479Z,2.38
2022-12-01T00:38:09.058Z,2.39
2022-12-01T00:38:21.760Z,2.40
2022-12-01T00:38:35.083Z,2.39
2022-12-01T00:38:48.380Z,2.38
2022-12-01T00:39:01.974Z,2.39
2022-12-01T00:39:14.642Z,2.39
2022-12-01T00:39:27.435Z,2.40
2022-12-01T00:39:39.992Z,2.38
2022-12-01T00:39:52.597Z,2.38
2022-12-01T00:40:06.695Z,2.40
2022-12-01T00:40:20.415Z,2.40
2022-12-01T00:40:33.205Z,2.40
2022-12-01T00:40:45.777Z,2.40
2022-12-01T00:40:58.612Z,2.40
2022-12-01T00:41:11.593Z,2.38
2022-12-01T00:41:26.603Z,2.39
2022-12-01T00:41:39.160Z,2.39
2022-12-01T00:41:51.735Z,2.41
2022-12-01T00:42:05.492Z,2.40
2022-12-01T00:42:21.214Z,2.41
2022-12-01T00:42:34.108Z,2.40
2022-12-01T00:42:46.672Z,2.40
2022-12-01T00:43:00.230Z,2.41
2022-12-01T00:43:12.784Z,2.41
2022-12-01T00:43:25.369Z,2.40
2022-12-01T00:43:37.937Z,2.41
2022-12-01T00:43:50.908Z,2.41
2022-12-01T00:44:03.643Z,2.42
2022-12-01T00:44:16.243Z,2.42
2022-12-01T00:44:29.852Z,2.42
2022-12-01T00:44:42.443Z,2.42
2022-12-01T00:44:55.070Z,2.42
2022-12-01T00:45:08.800Z,2.43
2022-12-01T00:45:21.632Z,2.43
2022-12-01T00:45:34.244Z,2.41
2022-12-01T00:45:47.103Z,2.41
2022-12-01T00:46:00.104Z,2.42
2022-12-01T00:46:13.800Z,2.42
2022-12-01T00:46:26.475Z,2.42
2022-12-01T00:46:39.072Z,2.41
2022-12-01T00:46:51.710Z,2.41
2022-12-01T00:47:04.460Z,2.40
2022-12-01T00:47:17.314Z,2.40
2022-12-01T00:47:32.237Z,2.39
2022-12-01T00:47:44.880Z,2.38
2022-12-01T00:47:57.547Z,2.37
2022-12-01T00:48:10.143Z,2.38
2022-12-01T00:48:22.929Z,2.37
2022-12-01T00:48:35.505Z,2.35
2022-12-01T00:48:48.094Z,2.37
2022-12-01T00:49:00.824Z,2.36
2022-12-01T00:49:15.532Z,2.35
2022-12-01T00:49:28.108Z,2.36
2022-12-01T00:49:41.144Z,2.36
2022-12-01T00:49:53.849Z,2.35
2022-12-01T00:50:07.301Z,2.35
2022-12-01T00:50:19.888Z,2.36
2022-12-01T00:50:32.468Z,2.36
2022-12-01T00:50:45.509Z,2.36
2022-12-01T00:50:59.456Z,2.36
2022-12-01T00:51:12.051Z,2.37
2022-12-01T00:51:24.615Z,2.37
2022-12-01T00:51:37.208Z,2.38
2022-12-01T00:51:49.891Z,2.39
2022-12-01T00:52:02.443Z,2.39
2022-12-01T00:52:17.333Z,2.39
2022-12-01T00:52:29.920Z,2.40
2022-12-01T00:52:42.483Z,2.41
2022-12-01T00:52:55.084Z,2.39
2022-12-01T00:53:07.753Z,2.43
2022-12-01T00:53:20.497Z,2.41
2022-12-01T00:53:33.085Z,2.42
2022-12-01T00:53:47.101Z,2.41
2022-12-01T00:53:59.709Z,2.41
2022-12-01T00:54:12.553Z,2.41
2022-12-01T00:54:25.300Z,2.41
2022-12-01T00:54:38.112Z,2.42
2022-12-01T00:54:50.678Z,2.41
2022-12-01T00:55:03.354Z,2.42
2022-12-01T00:55:16.968Z,2.42
2022-12-01T00:55:29.540Z,2.42
2022-12-01T00:55:42.216Z,2.41
2022-12-01T00:55:54.822Z,2.41
2022-12-01T00:56:07.913Z,2.41
2022-12-01T00:56:21.132Z,2.42
2022-12-01T00:56:33.700Z,2.42
2022-12-01T00:56:46.268Z,2.42
2022-12-01T00:57:00.191Z,2.42
2022-12-01T00:57:13.508Z,2.41
2022-12-01T00:57:26.076Z,2.42
2022-12-01T00:57:38.731Z,2.43
2022-12-01T00:57:51.305Z,2.42
2022-12-01T00:58:04.499Z,2.42
2022-12-01T00:58:17.190Z,2.42
2022-12-01T00:58:30.793Z,2.42
2022-12-01T00:58:43.623Z,2.43
2022-12-01T00:58:56.232Z,2.42
2022-12-01T00:59:08.803Z,2.42
2022-12-01T00:59:21.384Z,2.43
2022-12-01T00:59:33.961Z,2.44
2022-12-01T00:59:47.223Z,2.44
2022-12-01T01:00:01.010Z,2.44
2022-12-01T01:00:15.074Z,2.43
2022-12-01T01:00:27.953Z,2.43
2022-12-01T01:00:40.658Z,2.44
2022-12-01T01:00:58.029Z,2.42
2022-12-01T01:01:10.795Z,2.43
2022-12-01T01:01:23.557Z,2.44
2022-12-01T01:01:37.344Z,2.45
2022-12-01T01:01:50.146Z,2.44
2022-12-01T01:02:03.573Z,2.44
2022-12-01T01:02:16.249Z,2.47
2022-12-01T01:02:28.903Z,2.46
2022-12-01T01:02:43.035Z,2.46
2022-12-01T01:02:55.705Z,2.46
2022-12-01T01:03:09.820Z,2.46
2022-12-01T01:03:22.397Z,2.47
2022-12-01T01:03:35.021Z,2.46
2022-12-01T01:03:47.697Z,2.46
2022-12-01T01:04:00.283Z,2.47
2022-12-01T01:04:12.850Z,2.48
2022-12-01T01:04:25.449Z,2.48
2022-12-01T01:04:38.066Z,2.48
2022-12-01T01:04:51.829Z,2.47
2022-12-01T01:05:05.421Z,2.48
2022-12-01T01:05:18.206Z,2.48
2022-12-01T01:05:31.000Z,2.49
2022-12-01T01:05:43.752Z,2.49
2022-12-01T01:05:56.790Z,2.50
2022-12-01T01:06:11.368Z,2.50
2022-12-01T01:06:25.001Z,2.49
2022-12-01T01:06:37.858Z,2.50
2022-12-01T01:06:50.557Z,2.48
2022-12-01T01:07:03.611Z,2.47
2022-12-01T01:07:16.263Z,2.47
2022-12-01T01:07:30.762Z,2.48
2022-12-01T01:07:43.412Z,2.47
2022-12-01T01:07:56.092Z,2.47
2022-12-01T01:08:09.636Z,2.46
2022-12-01T01:08:23.495Z,2.45
2022-12-01T01:08:36.587Z,2.47
2022-12-01T01:08:49.163Z,2.45
2022-12-01T01:09:01.981Z,2.45
2022-12-01T01:09:15.671Z,2.44
2022-12-01T01:09:29.282Z,2.46
2022-12-01T01:09:41.861Z,2.44
2022-12-01T01:09:54.451Z,2.44
2022-12-01T01:10:07.912Z,2.44
2022-12-01T01:10:20.505Z,2.44
2022-12-01T01:10:33.102Z,2.44
2022-12-01T01:10:48.978Z,2.46
2022-12-01T01:11:01.973Z,2.46
2022-12-01T01:11:14.614Z,2.45
2022-12-01T01:11:27.202Z,2.47
2022-12-01T01:11:40.015Z,2.47
2022-12-01T01:11:53.010Z,2.47
2022-12-01T01:12:07.025Z,2.46
2022-12-01T01:12:19.599Z,2.47
2022-12-01T01:12:32.177Z,2.46
2022-12-01T01:12:44.812Z,2.47
2022-12-01T01:12:57.376Z,2.47
2022-12-01T01:13:10.452Z,2.49
2022-12-01T01:13:23.029Z,2.48
2022-12-01T01:13:37.629Z,2.48
2022-12-01T01:13:50.219Z,2.47
2022-12-01T01:14:03.166Z,2.46
2022-12-01T01:14:16.032Z,2.47
2022-12-01T01:14:28.670Z,2.47
2022-12-01T01:14:41.248Z,2.47
2022-12-01T01:14:54.916Z,2.46
2022-12-01T01:15:08.345Z,2.45
2022-12-01T01:15:21.697Z,2.45
2022-12-01T01:15:34.482Z,2.47
2022-12-01T01:15:57.524Z,2.48
2022-12-01T01:16:14.798Z,2.47
2022-12-01T01:16:29.075Z,2.47
2022-12-01T01:16:41.903Z,2.46
2022-12-01T01:16:56.349Z,2.46
2022-12-01T01:17:09.043Z,2.44
2022-12-01T01:17:21.679Z,2.45
2022-12-01T01:17:34.450Z,2.45
2022-12-01T01:17:49.400Z,2.44
2022-12-01T01:18:02.140Z,2.45
2022-12-01T01:18:14.893Z,2.45
2022-12-01T01:18:27.789Z,2.44
2022-12-01T01:18:40.429Z,2.43
2022-12-01T01:18:53.176Z,2.44
2022-12-01T01:19:05.774Z,2.43
2022-12-01T01:19:19.490Z,2.42
2022-12-01T01:19:32.048Z,2.42
2022-12-01T01:19:44.732Z,2.41
2022-12-01T01:19:57.288Z,2.40
2022-12-01T01:20:10.925Z,2.39
2022-12-01T01:20:23.440Z,2.40
2022-12-01T01:20:36.036Z,2.40
2022-12-01T01:20:56.702Z,2.41
2022-12-01T01:21:12.575Z,2.40
2022-12-01T01:21:26.040Z,2.39
2022-12-01T01:21:39.560Z,2.36
2022-12-01T01:21:53.121Z,2.37
2022-12-01T01:22:05.690Z,2.37
2022-12-01T01:22:18.277Z,2.36
2022-12-01T01:22:30.856Z,2.37
2022-12-01T01:22:43.400Z,2.36
2022-12-01T01:22:55.997Z,2.37
2022-12-01T01:23:08.986Z,2.36
2022-12-01T01:23:22.538Z,2.37
2022-12-01T01:23:35.130Z,2.37
2022-12-01T01:23:47.724Z,2.38
2022-12-01T01:24:00.471Z,2.38
2022-12-01T01:24:13.047Z,2.38
2022-12-01T01:24:25.751Z,2.37
2022-12-01T01:24:39.633Z,2.36
2022-12-01T01:24:52.200Z,2.37
2022-12-01T01:25:05.328Z,2.37
2022-12-01T01:25:18.215Z,2.38
2022-12-01T01:25:32.567Z,2.38
2022-12-01T01:25:45.217Z,2.37
2022-12-01T01:26:01.982Z,2.37
2022-12-01T01:26:18.008Z,2.36
2022-12-01T01:26:31.764Z,2.35
2022-12-01T01:26:44.382Z,2.35
2022-12-01T01:26:56.927Z,2.34
2022-12-01T01:27:09.502Z,2.35
2022-12-01T01:27:22.058Z,2.34
2022-12-01T01:27:34.848Z,2.35
2022-12-01T01:27:47.421Z,2.35
2022-12-01T01:28:01.145Z,2.34
2022-12-01T01:28:13.747Z,2.34
2022-12-01T01:28:26.337Z,2.34
2022-12-01T01:28:41.710Z,2.33
2022-12-01T01:28:57.132Z,2.33
2022-12-01T01:29:10.715Z,2.33
2022-12-01T01:29:23.569Z,2.35
2022-12-01T01:29:36.863Z,2.34
2022-12-01T01:29:49.577Z,2.34
2022-12-01T01:30:02.348Z,2.35
2022-12-01T01:30:15.584Z,2.34
2022-12-01T01:30:28.273Z,2.33
2022-12-01T01:30:41.770Z,2.34
2022-12-01T01:30:54.432Z,2.34
2022-12-01T01:31:10.760Z,2.33
2022-12-01T01:31:25.235Z,2.33
2022-12-01T01:31:37.943Z,2.32
2022-12-01T01:31:50.781Z,2.33
2022-12-01T01:32:04.221Z,2.32
2022-12-01T01:32:16.817Z,2.33
2022-12-01T01:32:30.363Z,2.32
2022-12-01T01:32:42.960Z,2.33
2022-12-01T01:32:56.895Z,2.31
2022-12-01T01:33:09.473Z,2.30
2022-12-01T01:33:22.027Z,2.28
2022-12-01T01:33:34.672Z,2.28
2022-12-01T01:33:47.976Z,2.28
2022-12-01T01:34:00.828Z,2.27
2022-12-01T01:34:14.443Z,2.27
2022-12-01T01:34:27.038Z,2.27
2022-12-01T01:34:39.759Z,2.28
2022-12-01T01:34:52.351Z,2.31
2022-12-01T01:35:05.566Z,2.31
2022-12-01T01:35:18.259Z,2.30
2022-12-01T01:35:31.004Z,2.31
2022-12-01T01:35:43.557Z,2.30
2022-12-01T01:35:58.861Z,2.30
2022-12-01T01:36:15.320Z,2.28
2022-12-01T01:36:28.267Z,2.29
2022-12-01T01:36:40.844Z,2.26
2022-12-01T01:36:53.419Z,2.25
2022-12-01T01:37:06.000Z,2.26
2022-12-01T01:37:18.601Z,2.25
2022-12-01T01:37:31.215Z,2.24
2022-12-01T01:37:43.781Z,2.26
2022-12-01T01:37:57.473Z,2.25
2022-12-01T01:38:10.724Z,2.25
2022-12-01T01:38:23.563Z,2.23
2022-12-01T01:38:36.564Z,2.25
2022-12-01T01:38:51.594Z,2.26
2022-12-01T01:39:04.604Z,2.25
2022-12-01T01:39:18.197Z,2.23
2022-12-01T01:39:30.937Z,2.23
2022-12-01T01:39:43.593Z,2.25
2022-12-01T01:39:56.186Z,2.25
2022-12-01T01:40:09.860Z,2.25
2022-12-01T01:40:22.484Z,2.26
2022-12-01T01:40:35.059Z,2.26
2022-12-01T01:40:47.815Z,2.25
2022-12-01T01:41:01.457Z,2.26
2022-12-01T01:41:15.403Z,2.27
2022-12-01T01:41:28.968Z,2.26
2022-12-01T01:41:42.032Z,2.27
2022-12-01T01:41:54.634Z,2.27
2022-12-01T01:42:09.321Z,2.27
2022-12-01T01:42:22.163Z,2.27
2022-12-01T01:42:35.049Z,2.29
2022-12-01T01:42:48.615Z,2.28
2022-12-01T01:43:01.191Z,2.28
2022-12-01T01:43:16.223Z,2.27
2022-12-01T01:43:44.708Z,2.28
2022-12-01T01:43:58.872Z,2.28
2022-12-01T01:44:57.875Z,2.29
2022-12-01T01:45:21.284Z,2.31
2022-12-01T01:45:34.370Z,2.31
2022-12-01T01:45:47.138Z,2.30
2022-12-01T01:45:59.769Z,2.29
2022-12-01T01:46:14.935Z,2.28
2022-12-01T01:46:30.666Z,2.29
2022-12-01T01:46:43.304Z,2.29
2022-12-01T01:46:55.947Z,2.30
2022-12-01T01:47:09.340Z,2.28
2022-12-01T01:47:26.642Z,2.28
2022-12-01T01:47:40.769Z,2.28
2022-12-01T01:47:55.649Z,2.28
2022-12-01T01:48:11.795Z,2.29
2022-12-01T01:48:24.476Z,2.28
2022-12-01T01:48:41.457Z,2.28
2022-12-01T01:48:57.995Z,2.29
2022-12-01T01:49:13.825Z,2.30
2022-12-01T01:49:26.510Z,2.30
2022-12-01T01:49:39.850Z,2.30
2022-12-01T01:49:53.890Z,2.31
2022-12-01T01:50:11.819Z,2.32
2022-12-01T01:50:28.607Z,2.34
2022-12-01T01:50:41.718Z,2.34
2022-12-01T01:50:54.778Z,2.35
2022-12-01T01:51:08.747Z,2.34
2022-12-01T01:51:24.471Z,2.34
2022-12-01T01:51:44.563Z,2.34
2022-12-01T01:51:57.966Z,2.34
2022-12-01T01:52:11.028Z,2.34
2022-12-01T01:52:24.672Z,2.35
2022-12-01T01:52:43.060Z,2.36
2022-12-01T01:53:03.153Z,2.36
2022-12-01T01:53:16.121Z,2.35
2022-12-01T01:53:30.432Z,2.35
2022-12-01T01:53:45.099Z,2.35
2022-12-01T01:54:03.194Z,2.35
2022-12-01T01:54:24.257Z,2.36
2022-12-01T01:54:41.162Z,2.35
2022-12-01T01:54:55.712Z,2.36
2022-12-01T01:55:09.047Z,2.35
2022-12-01T01:55:21.668Z,2.36
2022-12-01T01:55:36.196Z,2.35
2022-12-01T01:55:48.831Z,2.36
2022-12-01T01:56:03.309Z,2.37
2022-12-01T01:56:17.075Z,2.35
2022-12-01T01:56:30.742Z,2.35
2022-12-01T01:56:44.743Z,2.36
2022-12-01T01:57:00.223Z,2.35
2022-12-01T01:57:16.978Z,2.34
2022-12-01T01:57:33.357Z,2.35
2022-12-01T01:57:47.517Z,2.36
2022-12-01T01:58:01.177Z,2.35
2022-12-01T01:58:14.059Z,2.36
2022-12-01T01:58:27.731Z,2.35
2022-12-01T01:58:41.457Z,2.35
2022-12-01T01:58:54.578Z,2.35
2022-12-01T01:59:08.263Z,2.35
2022-12-01T01:59:27.418Z,2.37
2022-12-01T01:59:43.933Z,2.36
2022-12-01T02:00:01.824Z,2.35
2022-12-01T02:00:17.611Z,2.36
2022-12-01T02:00:30.261Z,2.37
2022-12-01T02:00:46.189Z,2.37
2022-12-01T02:00:58.816Z,2.37
2022-12-01T02:01:11.565Z,2.37
2022-12-01T02:01:24.181Z,2.38
2022-12-01T02:01:36.960Z,2.38
2022-12-01T02:01:56.877Z,2.39
2022-12-01T02:02:12.790Z,2.38
2022-12-01T02:02:25.689Z,2.38
2022-12-01T02:02:43.579Z,2.38
2022-12-01T02:02:57.924Z,2.37
2022-12-01T02:03:15.783Z,2.38
2022-12-01T02:03:29.484Z,2.36
2022-12-01T02:03:43.609Z,2.37
2022-12-01T02:03:56.541Z,2.37
2022-12-01T02:04:09.566Z,2.36
2022-12-01T02:04:24.460Z,2.35
2022-12-01T02:04:40.363Z,2.36
2022-12-01T02:04:57.067Z,2.35
2022-12-01T02:05:12.090Z,2.34
2022-12-01T02:05:30.516Z,2.35
2022-12-01T02:05:44.864Z,2.36
2022-12-01T02:06:04.517Z,2.35
2022-12-01T02:06:17.905Z,2.35
2022-12-01T02:06:31.519Z,2.35
2022-12-01T02:06:44.141Z,2.35
2022-12-01T02:06:56.747Z,2.35
2022-12-01T02:07:11.508Z,2.34
2022-12-01T02:07:25.393Z,2.34
2022-12-01T02:07:39.322Z,2.34
2022-12-01T02:07:53.762Z,2.35
2022-12-01T02:08:12.341Z,2.36
2022-12-01T02:08:26.067Z,2.36
2022-12-01T02:08:38.689Z,2.35
2022-12-01T02:08:51.460Z,2.36
2022-12-01T02:09:04.011Z,2.35
2022-12-01T02:09:16.585Z,2.35
2022-12-01T02:09:29.147Z,2.35
2022-12-01T02:09:41.893Z,2.35
2022-12-01T02:09:56.442Z,2.35
2022-12-01T02:10:13.456Z,2.35
2022-12-01T02:10:38.776Z,2.33
2022-12-01T02:11:11.285Z,2.36
2022-12-01T02:11:57.187Z,2.35
2022-12-01T02:12:25.311Z,2.36
2022-12-01T02:12:54.736Z,2.36
2022-12-01T02:13:19.307Z,2.36
2022-12-01T02:13:39.356Z,2.36
2022-12-01T02:14:03.480Z,2.35
2022-12-01T02:14:49.729Z,2.35
2022-12-01T02:15:16.087Z,2.34
2022-12-01T02:15:34.311Z,2.33
2022-12-01T02:15:55.736Z,2.32
2022-12-01T02:16:14.658Z,2.33
2022-12-01T02:16:33.242Z,2.33
2022-12-01T02:16:55.672Z,2.34
2022-12-01T02:17:17.693Z,2.34
2022-12-01T02:17:41.551Z,2.34
2022-12-01T02:18:06.145Z,2.35
2022-12-01T02:18:29.034Z,2.34
2022-12-01T02:18:51.837Z,2.34
2022-12-01T02:19:25.404Z,2.34
2022-12-01T02:20:02.839Z,2.35
2022-12-01T02:20:39.812Z,2.34
2022-12-01T02:21:20.190Z,2.36
2022-12-01T02:21:51.226Z,2.37
2022-12-01T02:22:17.191Z,2.39
2022-12-01T02:22:48.206Z,2.40
2022-12-01T02:23:30.544Z,2.40
2022-12-01T02:24:35.683Z,2.39
2022-12-01T02:25:01.387Z,2.39
2022-12-01T02:25:26.151Z,2.39
2022-12-01T02:25:48.755Z,2.40
2022-12-01T02:26:17.473Z,2.41
2022-12-01T02:26:39.513Z,2.41
2022-12-01T02:26:57.078Z,2.40
2022-12-01T02:27:20.083Z,2.41
2022-12-01T02:27:52.655Z,2.42
2022-12-01T02:28:30.385Z,2.40
2022-12-01T02:28:57.800Z,2.40
2022-12-01T02:29:38.330Z,2.38
2022-12-01T02:30:10.322Z,2.38
2022-12-01T02:30:34.749Z,2.37
2022-12-01T02:30:50.520Z,2.36
2022-12-01T02:31:08.759Z,2.38
2022-12-01T02:31:28.423Z,2.37
2022-12-01T02:31:48.613Z,2.37
2022-12-01T02:32:08.453Z,2.38
2022-12-01T02:32:30.706Z,2.37
2022-12-01T02:32:54.486Z,2.36
2022-12-01T02:33:16.049Z,2.37
2022-12-01T02:33:36.572Z,2.36
2022-12-01T02:33:55.827Z,2.34
2022-12-01T02:34:14.488Z,2.35
2022-12-01T02:34:33.951Z,2.34
2022-12-01T02:34:56.137Z,2.34
2022-12-01T02:35:15.099Z,2.33
2022-12-01T02:35:34.819Z,2.32
2022-12-01T02:35:55.539Z,2.33
2022-12-01T02:36:17.600Z,2.33
2022-12-01T02:36:37.225Z,2.35
2022-12-01T02:36:56.343Z,2.35
2022-12-01T02:37:17.438Z,2.34
2022-12-01T02:37:34.293Z,2.34
2022-12-01T02:37:55.748Z,2.32
2022-12-01T02:38:15.039Z,2.35
2022-12-01T02:38:31.408Z,2.35
2022-12-01T02:38:52.117Z,2.34
2022-12-01T02:39:09.855Z,2.35
2022-12-01T02:39:30.295Z,2.35
2022-12-01T02:39:49.566Z,2.36
2022-12-01T02:40:12.147Z,2.35
2022-12-01T02:40:28.311Z,2.37
2022-12-01T02:40:45.573Z,2.37
2022-12-01T02:41:07.445Z,2.37
2022-12-01T02:41:25.702Z,2.36
2022-12-01T02:41:42.948Z,2.38
2022-12-01T02:42:02.423Z,2.37
2022-12-01T02:42:35.473Z,2.37
2022-12-01T02:43:00.029Z,2.37
2022-12-01T02:43:21.558Z,2.37
2022-12-01T02:43:44.306Z,2.35
2022-12-01T02:44:05.002Z,2.35
2022-12-01T02:44:23.591Z,2.36
2022-12-01T02:44:42.135Z,2.35
2022-12-01T02:44:56.078Z,2.35
2022-12-01T02:45:15.135Z,2.35
2022-12-01T02:45:37.119Z,2.37
2022-12-01T02:45:55.676Z,2.37
2022-12-01T02:46:12.847Z,2.36
2022-12-01T02:46:32.561Z,2.38
2022-12-01T02:46:50.814Z,2.38
2022-12-01T02:47:10.448Z,2.40
2022-12-01T02:47:23.773Z,2.41
2022-12-01T02:47:38.611Z,2.41
2022-12-01T02:47:56.010Z,2.42
2022-12-01T02:48:14.436Z,2.41
2022-12-01T02:48:29.971Z,2.41
2022-12-01T02:48:44.794Z,2.40
2022-12-01T02:49:00.690Z,2.40
2022-12-01T02:49:17.852Z,2.40
2022-12-01T02:49:35.024Z,2.41
2022-12-01T02:49:50.048Z,2.40
2022-12-01T02:50:05.024Z,2.40
2022-12-01T02:50:18.405Z,2.41
2022-12-01T02:50:34.799Z,2.41
2022-12-01T02:50:49.109Z,2.42
2022-12-01T02:51:06.749Z,2.42
2022-12-01T02:51:24.810Z,2.43
2022-12-01T02:51:40.128Z,2.42
2022-12-01T02:51:54.807Z,2.44
2022-12-01T02:52:09.368Z,2.43
2022-12-01T02:52:27.020Z,2.43
2022-12-01T02:52:41.221Z,2.44
2022-12-01T02:52:54.825Z,2.43
2022-12-01T02:53:11.409Z,2.44
2022-12-01T02:53:24.094Z,2.45
2022-12-01T02:53:36.783Z,2.45
2022-12-01T02:53:50.335Z,2.44
2022-12-01T02:54:06.399Z,2.45
2022-12-01T02:54:20.365Z,2.47
2022-12-01T02:54:34.248Z,2.47
2022-12-01T02:54:48.452Z,2.47
2022-12-01T02:55:01.037Z,2.47
2022-12-01T02:55:13.599Z,2.49
2022-12-01T02:55:26.168Z,2.49
2022-12-01T02:55:47.173Z,2.49
2022-12-01T02:56:00.838Z,2.51
2022-12-01T02:56:15.918Z,2.51
2022-12-01T02:56:29.412Z,2.53
2022-12-01T02:56:44.666Z,2.51
2022-12-01T02:56:57.285Z,2.51
2022-12-01T02:57:12.362Z,2.52
2022-12-01T02:57:24.949Z,2.50
2022-12-01T02:57:37.457Z,2.50
2022-12-01T02:57:51.000Z,2.49
2022-12-01T02:58:14.095Z,2.49
2022-12-01T02:58:26.668Z,2.49
2022-12-01T02:58:39.419Z,2.48
2022-12-01T02:58:51.985Z,2.48
2022-12-01T02:59:11.074Z,2.49
2022-12-01T02:59:23.793Z,2.49
2022-12-01T02:59:36.380Z,2.49
2022-12-01T02:59:54.367Z,2.49
2022-12-01T03:00:13.478Z,2.49
2022-12-01T03:00:26.238Z,2.50
2022-12-01T03:00:41.884Z,2.50
2022-12-01T03:01:22.153Z,2.52
2022-12-01T03:01:52.638Z,2.53
2022-12-01T03:02:14.698Z,2.53
2022-12-01T03:02:42.259Z,2.53
2022-12-01T03:03:18.005Z,2.51
2022-12-01T03:03:41.005Z,2.51
2022-12-01T03:04:16.966Z,2.51
2022-12-01T03:04:43.685Z,2.49
2022-12-01T03:05:02.140Z,2.47
2022-12-01T03:05:21.384Z,2.47
2022-12-01T03:05:45.836Z,2.46
2022-12-01T03:06:08.440Z,2.46
2022-12-01T03:06:30.028Z,2.46
2022-12-01T03:06:51.997Z,2.46
2022-12-01T03:07:15.578Z,2.45
2022-12-01T03:07:45.856Z,2.46
2022-12-01T03:08:05.687Z,2.44
2022-12-01T03:08:26.995Z,2.44
2022-12-01T03:08:51.457Z,2.43
2022-12-01T03:09:14.396Z,2.42
2022-12-01T03:09:38.428Z,2.41
2022-12-01T03:10:03.450Z,2.41
2022-12-01T03:10:24.082Z,2.41
2022-12-01T03:10:47.612Z,2.41
2022-12-01T03:11:01.436Z,2.43
2022-12-01T03:11:27.237Z,2.42
2022-12-01T03:11:47.948Z,2.44
2022-12-01T03:12:14.347Z,2.43
2022-12-01T03:12:35.156Z,2.45
2022-12-01T03:13:01.303Z,2.46
2022-12-01T03:13:24.001Z,2.47
2022-12-01T03:13:43.220Z,2.48
2022-12-01T03:14:09.984Z,2.50
2022-12-01T03:14:34.440Z,2.50
2022-12-01T03:14:54.779Z,2.49
2022-12-01T03:15:14.279Z,2.49
2022-12-01T03:15:35.768Z,2.48
2022-12-01T03:16:00.593Z,2.49
2022-12-01T03:16:19.978Z,2.48
2022-12-01T03:16:41.833Z,2.47
2022-12-01T03:16:56.752Z,2.47
2022-12-01T03:17:13.943Z,2.47
2022-12-01T03:17:32.243Z,2.47
2022-12-01T03:17:49.099Z,2.48
2022-12-01T03:18:12.263Z,2.48
2022-12-01T03:18:32.325Z,2.47
2022-12-01T03:18:51.185Z,2.48
2022-12-01T03:19:09.931Z,2.46
2022-12-01T03:19:29.555Z,2.48
2022-12-01T03:19:45.950Z,2.48
2022-12-01T03:20:04.987Z,2.49
2022-12-01T03:20:24.369Z,2.49
2022-12-01T03:20:41.128Z,2.49
2022-12-01T03:21:00.476Z,2.50
2022-12-01T03:21:22.526Z,2.49
2022-12-01T03:21:40.519Z,2.48
2022-12-01T03:21:57.215Z,2.48
2022-12-01T03:22:13.964Z,2.48
2022-12-01T03:22:34.724Z,2.49
2022-12-01T03:22:52.657Z,2.48
2022-12-01T03:23:10.186Z,2.47
2022-12-01T03:23:28.729Z,2.49
2022-12-01T03:23:44.428Z,2.49
2022-12-01T03:24:02.594Z,2.50
2022-12-01T03:24:18.114Z,2.51
2022-12-01T03:24:33.725Z,2.50
2022-12-01T03:24:49.225Z,2.51
2022-12-01T03:25:04.013Z,2.51
2022-12-01T03:25:18.575Z,2.50
2022-12-01T03:25:32.545Z,2.49
2022-12-01T03:25:48.743Z,2.47
2022-12-01T03:26:07.064Z,2.47
2022-12-01T03:26:22.636Z,2.48
2022-12-01T03:26:37.757Z,2.48
2022-12-01T03:26:56.959Z,2.49
2022-12-01T03:27:12.458Z,2.49
2022-12-01T03:27:30.010Z,2.48
2022-12-01T03:28:13.598Z,2.48
2022-12-01T03:28:28.887Z,2.50
2022-12-01T03:28:47.762Z,2.50
2022-12-01T03:29:06.313Z,2.51
2022-12-01T03:29:24.780Z,2.50
2022-12-01T03:29:41.457Z,2.50
2022-12-01T03:29:56.631Z,2.49
2022-12-01T03:30:11.202Z,2.48
2022-12-01T03:30:26.045Z,2.49